sensor_id;sensor_type;location;lat;lon;timestamp;P1;durP1;ratioP1;P2;durP2;ratioP2
42092;SDS011;28974;50.316;18.960;2023-11-21T00:08:28;31.77;;;10.80;;
42092;SDS011;28974;50.316;18.960;2023-11-21T00:20:29;22.30;;;7.78;;
42092;SDS011;28974;50.316;18.960;2023-11-21T00:32:29;16.55;;;7.97;;
42092;SDS011;28974;50.316;18.960;2023-11-21T00:44:29;22.33;;;9.95;;
42092;SDS011;28974;50.316;18.960;2023-11-21T00:56:30;27.83;;;14.13;;
42092;SDS011;28974;50.316;18.960;2023-11-21T01:08:31;45.70;;;20.67;;
42092;SDS011;28974;50.316;18.960;2023-11-21T01:20:31;33.10;;;17.83;;
42092;SDS011;28974;50.316;18.960;2023-11-21T01:32:32;28.95;;;13.73;;
42092;SDS011;28974;50.316;18.960;2023-11-21T01:44:32;24.13;;;12.98;;
42092;SDS011;28974;50.316;18.960;2023-11-21T01:56:33;29.90;;;11.27;;
42092;SDS011;28974;50.316;18.960;2023-11-21T02:08:34;21.60;;;9.77;;
42092;SDS011;28974;50.316;18.960;2023-11-21T02:20:38;22.20;;;9.75;;
42092;SDS011;28974;50.316;18.960;2023-11-21T02:32:39;20.90;;;9.93;;
42092;SDS011;28974;50.316;18.960;2023-11-21T02:44:40;16.20;;;8.02;;
42092;SDS011;28974;50.316;18.960;2023-11-21T02:56:41;18.45;;;7.57;;
42092;SDS011;28974;50.316;18.960;2023-11-21T03:08:41;18.08;;;8.77;;
42092;SDS011;28974;50.316;18.960;2023-11-21T03:20:43;36.42;;;10.20;;
42092;SDS011;28974;50.316;18.960;2023-11-21T03:32:46;30.92;;;11.10;;
42092;SDS011;28974;50.316;18.960;2023-11-21T03:44:46;28.15;;;10.23;;
42092;SDS011;28974;50.316;18.960;2023-11-21T03:56:48;23.75;;;9.52;;
42092;SDS011;28974;50.316;18.960;2023-11-21T04:08:49;38.17;;;10.32;;
42092;SDS011;28974;50.316;18.960;2023-11-21T04:20:49;34.15;;;12.35;;
42092;SDS011;28974;50.316;18.960;2023-11-21T04:32:50;33.33;;;12.52;;
42092;SDS011;28974;50.316;18.960;2023-11-21T04:44:51;21.98;;;9.77;;
42092;SDS011;28974;50.316;18.960;2023-11-21T04:56:52;17.33;;;7.40;;
42092;SDS011;28974;50.316;18.960;2023-11-21T05:08:53;24.67;;;11.68;;
42092;SDS011;28974;50.316;18.960;2023-11-21T05:20:53;41.80;;;19.13;;
42092;SDS011;28974;50.316;18.960;2023-11-21T05:32:53;48.85;;;19.88;;
42092;SDS011;28974;50.316;18.960;2023-11-21T05:44:54;35.03;;;18.20;;
42092;SDS011;28974;50.316;18.960;2023-11-21T05:56:54;31.90;;;14.82;;
42092;SDS011;28974;50.316;18.960;2023-11-21T06:08:55;26.63;;;13.52;;
42092;SDS011;28974;50.316;18.960;2023-11-21T06:20:56;42.85;;;17.95;;
42092;SDS011;28974;50.316;18.960;2023-11-21T06:32:56;41.53;;;18.63;;
42092;SDS011;28974;50.316;18.960;2023-11-21T06:45:01;41.47;;;20.08;;
42092;SDS011;28974;50.316;18.960;2023-11-21T06:57:04;44.30;;;22.73;;
42092;SDS011;28974;50.316;18.960;2023-11-21T07:09:04;55.15;;;25.00;;
42092;SDS011;28974;50.316;18.960;2023-11-21T07:21:04;51.00;;;22.55;;
42092;SDS011;28974;50.316;18.960;2023-11-21T07:33:06;56.70;;;23.33;;
42092;SDS011;28974;50.316;18.960;2023-11-21T07:45:07;60.67;;;25.38;;
42092;SDS011;28974;50.316;18.960;2023-11-21T07:57:08;58.85;;;26.30;;
42092;SDS011;28974;50.316;18.960;2023-11-21T08:09:08;55.50;;;24.98;;
42092;SDS011;28974;50.316;18.960;2023-11-21T08:21:09;43.22;;;20.00;;
42092;SDS011;28974;50.316;18.960;2023-11-21T08:33:09;44.42;;;21.48;;
42092;SDS011;28974;50.316;18.960;2023-11-21T08:45:11;59.95;;;24.52;;
42092;SDS011;28974;50.316;18.960;2023-11-21T08:57:12;48.88;;;22.52;;
42092;SDS011;28974;50.316;18.960;2023-11-21T09:09:13;50.30;;;22.17;;
42092;SDS011;28974;50.316;18.960;2023-11-21T09:21:14;45.70;;;21.00;;
42092;SDS011;28974;50.316;18.960;2023-11-21T09:33:14;55.53;;;19.90;;
42092;SDS011;28974;50.316;18.960;2023-11-21T09:45:16;40.70;;;15.70;;
42092;SDS011;28974;50.316;18.960;2023-11-21T09:57:19;30.42;;;13.23;;
42092;SDS011;28974;50.316;18.960;2023-11-21T10:09:19;29.80;;;14.15;;
42092;SDS011;28974;50.316;18.960;2023-11-21T10:21:21;25.23;;;12.88;;
42092;SDS011;28974;50.316;18.960;2023-11-21T10:33:30;16.38;;;6.90;;
42092;SDS011;28974;50.316;18.960;2023-11-21T10:45:31;20.60;;;9.35;;
42092;SDS011;28974;50.316;18.960;2023-11-21T10:57:31;27.98;;;10.65;;
42092;SDS011;28974;50.316;18.960;2023-11-21T11:09:31;21.40;;;8.75;;
42092;SDS011;28974;50.316;18.960;2023-11-21T11:45:40;26.30;;;10.40;;
42092;SDS011;28974;50.316;18.960;2023-11-21T11:57:42;24.85;;;9.50;;
42092;SDS011;28974;50.316;18.960;2023-11-21T12:09:43;15.93;;;7.53;;
42092;SDS011;28974;50.316;18.960;2023-11-21T12:21:43;22.63;;;8.82;;
42092;SDS011;28974;50.316;18.960;2023-11-21T12:33:44;45.17;;;12.77;;
42092;SDS011;28974;50.316;18.960;2023-11-21T12:45:44;32.50;;;14.18;;
42092;SDS011;28974;50.316;18.960;2023-11-21T12:57:45;25.60;;;9.27;;
42092;SDS011;28974;50.316;18.960;2023-11-21T13:09:45;30.77;;;12.63;;
42092;SDS011;28974;50.316;18.960;2023-11-21T13:21:46;45.75;;;14.95;;
42092;SDS011;28974;50.316;18.960;2023-11-21T13:33:49;47.47;;;17.98;;
42092;SDS011;28974;50.316;18.960;2023-11-21T13:45:55;37.90;;;18.90;;
42092;SDS011;28974;50.316;18.960;2023-11-21T13:58:04;47.20;;;22.48;;
42092;SDS011;28974;50.316;18.960;2023-11-21T14:10:09;37.33;;;18.52;;
42092;SDS011;28974;50.316;18.960;2023-11-21T14:22:14;44.72;;;19.35;;
42092;SDS011;28974;50.316;18.960;2023-11-21T14:34:14;41.97;;;18.63;;
42092;SDS011;28974;50.316;18.960;2023-11-21T14:46:15;46.25;;;23.65;;
42092;SDS011;28974;50.316;18.960;2023-11-21T14:58:18;67.55;;;32.95;;
42092;SDS011;28974;50.316;18.960;2023-11-21T15:10:28;67.57;;;31.15;;
42092;SDS011;28974;50.316;18.960;2023-11-21T15:22:45;65.07;;;34.83;;
42092;SDS011;28974;50.316;18.960;2023-11-21T15:34:46;92.30;;;41.45;;
42092;SDS011;28974;50.316;18.960;2023-11-21T15:46:52;68.38;;;37.67;;
42092;SDS011;28974;50.316;18.960;2023-11-21T15:58:52;64.60;;;35.40;;
42092;SDS011;28974;50.316;18.960;2023-11-21T16:10:53;76.82;;;39.63;;
42092;SDS011;28974;50.316;18.960;2023-11-21T16:22:54;75.93;;;37.85;;
42092;SDS011;28974;50.316;18.960;2023-11-21T16:34:54;94.85;;;38.55;;
42092;SDS011;28974;50.316;18.960;2023-11-21T16:46:56;78.82;;;30.55;;
42092;SDS011;28974;50.316;18.960;2023-11-21T16:58:57;43.17;;;18.25;;
42092;SDS011;28974;50.316;18.960;2023-11-21T17:10:58;45.22;;;19.75;;
42092;SDS011;28974;50.316;18.960;2023-11-21T17:22:58;45.00;;;21.27;;
42092;SDS011;28974;50.316;18.960;2023-11-21T17:34:59;46.25;;;23.10;;
42092;SDS011;28974;50.316;18.960;2023-11-21T17:47:00;36.17;;;17.45;;
42092;SDS011;28974;50.316;18.960;2023-11-21T17:59:02;35.47;;;16.27;;
42092;SDS011;28974;50.316;18.960;2023-11-21T18:11:02;33.05;;;17.08;;
42092;SDS011;28974;50.316;18.960;2023-11-21T18:23:05;27.33;;;13.60;;
42092;SDS011;28974;50.316;18.960;2023-11-21T18:35:05;15.57;;;8.73;;
42092;SDS011;28974;50.316;18.960;2023-11-21T18:47:06;23.33;;;9.85;;
42092;SDS011;28974;50.316;18.960;2023-11-21T18:59:06;21.95;;;11.00;;
42092;SDS011;28974;50.316;18.960;2023-11-21T19:11:10;27.40;;;12.38;;
42092;SDS011;28974;50.316;18.960;2023-11-21T19:23:11;25.40;;;9.63;;
42092;SDS011;28974;50.316;18.960;2023-11-21T19:35:16;17.33;;;7.75;;
42092;SDS011;28974;50.316;18.960;2023-11-21T19:47:16;24.83;;;9.50;;
42092;SDS011;28974;50.316;18.960;2023-11-21T19:59:17;19.40;;;9.35;;
42092;SDS011;28974;50.316;18.960;2023-11-21T20:11:21;17.00;;;8.70;;
42092;SDS011;28974;50.316;18.960;2023-11-21T20:23:21;18.33;;;8.88;;
42092;SDS011;28974;50.316;18.960;2023-11-21T20:35:22;30.35;;;12.57;;
42092;SDS011;28974;50.316;18.960;2023-11-21T20:47:22;26.58;;;12.73;;
42092;SDS011;28974;50.316;18.960;2023-11-21T20:59:22;32.83;;;14.45;;
42092;SDS011;28974;50.316;18.960;2023-11-21T21:11:23;28.90;;;13.38;;
42092;SDS011;28974;50.316;18.960;2023-11-21T21:23:24;33.63;;;16.00;;
42092;SDS011;28974;50.316;18.960;2023-11-21T21:35:24;36.63;;;17.48;;
42092;SDS011;28974;50.316;18.960;2023-11-21T21:47:33;44.78;;;21.40;;
42092;SDS011;28974;50.316;18.960;2023-11-21T21:59:33;47.70;;;23.83;;
42092;SDS011;28974;50.316;18.960;2023-11-21T22:11:34;48.90;;;24.95;;
42092;SDS011;28974;50.316;18.960;2023-11-21T22:23:34;52.28;;;25.23;;
42092;SDS011;28974;50.316;18.960;2023-11-21T22:35:36;48.75;;;22.65;;
42092;SDS011;28974;50.316;18.960;2023-11-21T22:47:38;46.65;;;20.77;;
42092;SDS011;28974;50.316;18.960;2023-11-21T22:59:39;51.75;;;25.27;;
42092;SDS011;28974;50.316;18.960;2023-11-21T23:11:39;71.47;;;29.63;;
42092;SDS011;28974;50.316;18.960;2023-11-21T23:23:42;62.63;;;28.90;;
42092;SDS011;28974;50.316;18.960;2023-11-21T23:35:42;62.63;;;28.67;;
42092;SDS011;28974;50.316;18.960;2023-11-21T23:47:43;52.07;;;26.07;;
42092;SDS011;28974;50.316;18.960;2023-11-21T23:59:43;71.03;;;30.20;;
